createdAt,value
2019-06-27T00:00:45.015Z,2.60
2019-06-27T00:03:13.398Z,2.80
2019-06-27T00:05:41.808Z,2.37
2019-06-27T00:08:10.315Z,2.50
2019-06-27T00:10:38.370Z,2.67
2019-06-27T00:13:06.791Z,2.60
2019-06-27T00:15:35.279Z,2.97
2019-06-27T00:18:03.686Z,2.70
2019-06-27T00:20:32.104Z,2.40
2019-06-27T00:23:00.200Z,2.87
2019-06-27T00:25:28.610Z,2.27
2019-06-27T00:27:57.022Z,2.70
2019-06-27T00:30:26.996Z,2.90
2019-06-27T00:32:55.390Z,2.80
2019-06-27T00:35:23.818Z,2.90
2019-06-27T00:37:52.237Z,2.63
2019-06-27T00:40:20.634Z,2.60
2019-06-27T00:42:49.046Z,3.10
2019-06-27T00:45:18.321Z,2.93
2019-06-27T00:47:46.723Z,3.30
2019-06-27T00:50:15.299Z,2.87
2019-06-27T00:52:43.703Z,2.73
2019-06-27T00:55:12.738Z,2.93
2019-06-27T00:57:41.160Z,2.83
2019-06-27T01:00:09.916Z,3.27
2019-06-27T01:02:38.319Z,3.17
2019-06-27T01:05:07.288Z,3.20
2019-06-27T01:07:35.693Z,3.27
2019-06-27T01:10:05.549Z,3.60
2019-06-27T01:12:34.006Z,3.17
2019-06-27T01:15:02.479Z,3.23
2019-06-27T01:17:30.995Z,3.67
2019-06-27T01:19:59.481Z,3.33
2019-06-27T01:22:27.883Z,3.60
2019-06-27T01:24:56.286Z,3.47
2019-06-27T01:27:30.313Z,3.33
2019-06-27T01:29:57.586Z,3.90
2019-06-27T01:32:25.987Z,3.40
2019-06-27T01:34:54.401Z,3.57
2019-06-27T01:37:22.797Z,3.50
2019-06-27T01:39:51.202Z,3.70
2019-06-27T01:42:19.627Z,3.30
2019-06-27T01:44:49.692Z,3.60
2019-06-27T01:47:18.108Z,4.00
2019-06-27T01:49:46.535Z,3.90
2019-06-27T01:52:14.938Z,4.00
2019-06-27T01:54:43.418Z,3.77
2019-06-27T01:57:11.847Z,4.10
2019-06-27T01:59:40.266Z,3.90
2019-06-27T02:02:08.742Z,4.10
2019-06-27T02:04:37.349Z,4.37
2019-06-27T02:07:05.909Z,4.43
2019-06-27T02:09:34.344Z,4.13
2019-06-27T02:12:02.767Z,4.10
2019-06-27T02:14:31.167Z,4.00
2019-06-27T02:16:59.574Z,4.67
2019-06-27T02:19:28.054Z,4.20
2019-06-27T02:21:56.504Z,4.33
2019-06-27T02:24:24.982Z,4.60
2019-06-27T02:26:53.422Z,4.40
2019-06-27T02:29:21.895Z,5.00
2019-06-27T02:31:50.312Z,4.57
2019-06-27T02:34:18.728Z,5.30
2019-06-27T02:36:47.177Z,5.37
2019-06-27T02:39:15.566Z,6.20
2019-06-27T02:41:44.040Z,5.67
2019-06-27T02:44:12.504Z,5.07
2019-06-27T02:46:41.115Z,5.17
2019-06-27T02:49:09.566Z,4.70
2019-06-27T02:51:38.086Z,4.83
2019-06-27T02:54:06.519Z,4.93
2019-06-27T02:56:34.899Z,5.00
2019-06-27T02:59:03.379Z,5.83
2019-06-27T03:01:31.813Z,4.80
2019-06-27T03:04:00.222Z,5.17
2019-06-27T03:06:28.630Z,4.37
2019-06-27T03:08:57.099Z,4.70
2019-06-27T03:11:25.510Z,5.00
2019-06-27T03:13:53.935Z,4.80
2019-06-27T03:16:22.334Z,4.90
2019-06-27T03:18:50.766Z,5.20
2019-06-27T03:21:19.240Z,5.57
2019-06-27T03:23:47.704Z,5.40
2019-06-27T03:26:16.210Z,4.60
2019-06-27T03:28:53.114Z,4.63
2019-06-27T03:31:15.020Z,5.23
2019-06-27T03:33:43.486Z,4.93
2019-06-27T03:36:11.889Z,5.30
2019-06-27T03:38:40.299Z,4.53
2019-06-27T03:41:08.715Z,5.13
2019-06-27T03:43:37.194Z,4.67
2019-06-27T03:46:05.604Z,4.70
2019-06-27T03:48:34.052Z,4.40
2019-06-27T03:51:02.437Z,4.47
2019-06-27T03:53:30.835Z,4.47
2019-06-27T03:55:59.256Z,4.60
2019-06-27T03:58:27.659Z,4.33
2019-06-27T04:00:56.132Z,4.83
2019-06-27T04:03:24.787Z,4.63
2019-06-27T04:05:53.187Z,4.30
2019-06-27T04:08:21.588Z,4.00
2019-06-27T04:10:50.347Z,3.97
2019-06-27T04:13:18.825Z,4.40
2019-06-27T04:15:47.291Z,3.80
2019-06-27T04:18:15.703Z,4.73
2019-06-27T04:20:44.179Z,3.97
2019-06-27T04:23:12.585Z,4.27
2019-06-27T04:25:40.995Z,3.80
2019-06-27T04:28:09.528Z,3.53
2019-06-27T04:30:37.930Z,4.20
2019-06-27T04:33:06.383Z,4.00
2019-06-27T04:35:34.779Z,3.80
2019-06-27T04:38:03.174Z,3.70
2019-06-27T04:40:31.591Z,3.80
2019-06-27T04:43:05.109Z,3.97
2019-06-27T04:45:30.160Z,3.90
2019-06-27T04:47:58.591Z,3.73
2019-06-27T04:50:27.028Z,3.70
2019-06-27T04:52:55.427Z,3.97
2019-06-27T04:55:23.843Z,3.60
2019-06-27T04:57:52.252Z,4.10
2019-06-27T05:00:26.313Z,4.20
2019-06-27T05:02:54.796Z,3.83
2019-06-27T05:05:23.194Z,3.57
2019-06-27T05:07:51.601Z,3.97
2019-06-27T05:10:20.027Z,3.80
2019-06-27T05:12:48.430Z,3.43
2019-06-27T05:15:17.104Z,3.70
2019-06-27T05:17:45.531Z,3.57
2019-06-27T05:20:14.172Z,3.80
2019-06-27T05:22:42.570Z,3.30
2019-06-27T05:25:10.991Z,3.60
2019-06-27T05:27:39.407Z,3.60
2019-06-27T05:30:10.572Z,3.40
2019-06-27T05:32:39.309Z,3.27
2019-06-27T05:35:07.887Z,3.63
2019-06-27T05:37:36.290Z,3.37
2019-06-27T05:40:08.782Z,3.50
2019-06-27T05:42:37.183Z,3.20
2019-06-27T05:45:06.627Z,3.80
2019-06-27T05:47:35.034Z,3.63
2019-06-27T05:50:07.587Z,3.33
2019-06-27T05:52:35.986Z,3.13
2019-06-27T05:55:05.999Z,3.23
2019-06-27T05:57:34.871Z,3.20
2019-06-27T06:00:05.423Z,3.30
2019-06-27T06:02:33.910Z,3.20
2019-06-27T06:05:02.323Z,2.67
2019-06-27T06:07:31.099Z,3.33
2019-06-27T06:09:59.515Z,3.20
2019-06-27T06:12:28.079Z,3.30
2019-06-27T06:14:56.484Z,3.50
2019-06-27T06:17:24.882Z,3.63
2019-06-27T06:19:53.299Z,3.53
2019-06-27T06:22:21.712Z,3.40
2019-06-27T06:24:50.103Z,3.30
2019-06-27T06:27:18.555Z,3.30
2019-06-27T06:29:46.986Z,3.10
2019-06-27T06:32:15.432Z,3.10
2019-06-27T06:34:43.916Z,2.93
2019-06-27T06:37:12.331Z,3.20
2019-06-27T06:39:40.751Z,2.70
2019-06-27T06:42:09.176Z,3.50
2019-06-27T06:44:37.657Z,2.83
2019-06-27T06:47:06.063Z,3.20
2019-06-27T06:49:34.473Z,3.10
2019-06-27T06:52:02.906Z,2.90
2019-06-27T06:54:31.319Z,3.30
2019-06-27T06:56:59.783Z,3.20
2019-06-27T06:59:28.193Z,3.37
2019-06-27T07:01:56.931Z,3.20
2019-06-27T07:04:25.333Z,3.30
2019-06-27T07:06:53.726Z,2.70
2019-06-27T07:09:22.151Z,3.03
2019-06-27T07:11:50.591Z,3.20
2019-06-27T07:14:19.033Z,3.23
2019-06-27T07:16:47.527Z,3.57
2019-06-27T07:19:15.967Z,3.20
2019-06-27T07:21:44.375Z,3.00
2019-06-27T07:24:12.787Z,3.20
2019-06-27T07:26:41.496Z,3.50
2019-06-27T07:29:09.913Z,4.00
2019-06-27T07:31:38.298Z,3.37
2019-06-27T07:34:06.703Z,3.40
2019-06-27T07:36:35.120Z,3.43
2019-06-27T07:39:05.072Z,3.00
2019-06-27T07:41:33.967Z,3.23
2019-06-27T07:44:02.375Z,3.13
2019-06-27T07:46:30.812Z,3.10
2019-06-27T07:48:59.270Z,3.10
2019-06-27T07:51:27.702Z,3.23
2019-06-27T07:53:56.106Z,3.40
2019-06-27T07:56:24.566Z,3.00
2019-06-27T07:58:52.983Z,3.57
2019-06-27T08:01:34.360Z,3.20
2019-06-27T08:03:51.515Z,3.93
2019-06-27T08:06:19.943Z,3.40
2019-06-27T08:08:48.344Z,3.50
2019-06-27T08:11:16.743Z,3.70
2019-06-27T08:13:44.914Z,3.70
2019-06-27T08:16:13.350Z,3.30
2019-06-27T08:18:41.753Z,3.20
2019-06-27T08:21:10.631Z,3.40
2019-06-27T08:23:41.922Z,3.00
2019-06-27T08:26:09.294Z,2.50
2019-06-27T08:28:37.840Z,2.90
2019-06-27T08:31:06.144Z,3.20
2019-06-27T08:33:34.548Z,3.03
2019-06-27T08:36:03.022Z,3.23
2019-06-27T08:38:31.426Z,3.10
2019-06-27T08:40:59.836Z,2.80
2019-06-27T08:43:28.249Z,2.60
2019-06-27T08:45:56.655Z,2.80
2019-06-27T08:48:25.055Z,2.90
2019-06-27T08:50:53.476Z,3.13
2019-06-27T08:53:21.901Z,2.40
2019-06-27T08:55:50.366Z,2.70
2019-06-27T08:58:18.775Z,2.97
2019-06-27T09:00:47.259Z,2.63
2019-06-27T09:03:15.658Z,2.63
2019-06-27T09:05:44.087Z,3.00
2019-06-27T09:08:12.487Z,2.50
2019-06-27T09:10:40.892Z,2.47
2019-06-27T09:13:09.303Z,3.10
2019-06-27T09:15:37.703Z,2.33
2019-06-27T09:18:06.103Z,2.20
2019-06-27T09:20:34.638Z,2.63
2019-06-27T09:23:03.101Z,2.50
2019-06-27T09:25:31.544Z,2.77
2019-06-27T09:28:00.083Z,2.53
2019-06-27T09:30:28.625Z,2.57
2019-06-27T09:32:57.037Z,3.02
2019-06-27T09:35:25.440Z,2.77
2019-06-27T09:37:53.846Z,2.70
2019-06-27T09:40:23.808Z,2.75
2019-06-27T09:42:52.199Z,2.47
2019-06-27T09:45:21.360Z,2.33
2019-06-27T09:47:49.758Z,2.37
2019-06-27T09:50:21.485Z,2.17
2019-06-27T09:52:48.980Z,2.22
2019-06-27T09:55:19.097Z,2.90
2019-06-27T09:57:47.551Z,2.60
2019-06-27T10:00:16.500Z,2.50
2019-06-27T10:02:44.908Z,3.00
2019-06-27T10:05:14.048Z,2.70
2019-06-27T10:07:42.448Z,2.90
2019-06-27T10:10:11.399Z,2.80
2019-06-27T10:12:42.927Z,2.90
2019-06-27T10:15:10.392Z,2.50
2019-06-27T10:17:38.792Z,2.17
2019-06-27T10:20:08.354Z,2.60
2019-06-27T10:22:37.161Z,3.00
2019-06-27T10:25:08.757Z,2.85
2019-06-27T10:27:37.180Z,2.60
2019-06-27T10:30:07.053Z,2.83
2019-06-27T10:32:35.461Z,2.47
2019-06-27T10:35:04.717Z,2.52
2019-06-27T10:37:33.227Z,2.77
2019-06-27T10:40:01.671Z,2.50
2019-06-27T10:42:30.732Z,2.37
2019-06-27T10:44:59.138Z,2.92
2019-06-27T10:47:27.555Z,2.72
2019-06-27T10:49:55.950Z,2.72
2019-06-27T10:52:24.365Z,2.70
2019-06-27T10:54:52.844Z,2.50
2019-06-27T10:57:21.247Z,2.22
2019-06-27T10:59:49.693Z,2.45
2019-06-27T11:02:18.101Z,2.70
2019-06-27T11:04:46.503Z,2.72
2019-06-27T11:07:14.925Z,2.58
2019-06-27T11:09:43.316Z,2.72
2019-06-27T11:12:11.710Z,2.65
2019-06-27T11:14:40.128Z,2.80
2019-06-27T11:17:08.529Z,3.00
2019-06-27T11:19:51.496Z,2.40
2019-06-27T11:22:07.295Z,2.65
2019-06-27T11:24:35.715Z,2.83
2019-06-27T11:27:04.174Z,2.92
2019-06-27T11:29:32.594Z,3.25
2019-06-27T11:32:01.121Z,3.20
2019-06-27T11:34:29.562Z,2.70
2019-06-27T11:36:57.971Z,2.70
2019-06-27T11:39:26.386Z,2.87
2019-06-27T11:41:54.783Z,2.85
2019-06-27T11:44:23.178Z,2.83
2019-06-27T11:46:51.701Z,3.37
2019-06-27T11:49:20.090Z,2.62
2019-06-27T11:51:48.500Z,2.60
2019-06-27T11:54:16.958Z,2.52
2019-06-27T11:56:45.367Z,2.25
2019-06-27T11:59:13.766Z,2.33
2019-06-27T12:01:42.349Z,2.80
2019-06-27T12:04:10.754Z,2.62
2019-06-27T12:06:39.162Z,2.02
2019-06-27T12:09:07.592Z,2.52
2019-06-27T12:11:35.991Z,2.15
2019-06-27T12:14:04.442Z,3.17
2019-06-27T12:16:32.883Z,2.60
2019-06-27T12:19:01.290Z,2.22
2019-06-27T12:21:29.691Z,2.30
2019-06-27T12:23:58.116Z,2.72
2019-06-27T12:26:26.618Z,2.62
2019-06-27T12:28:55.018Z,2.27
2019-06-27T12:31:23.429Z,2.60
2019-06-27T12:34:05.459Z,2.15
2019-06-27T12:36:21.955Z,2.30
2019-06-27T12:38:50.362Z,2.12
2019-06-27T12:41:18.817Z,2.35
2019-06-27T12:43:47.219Z,1.95
2019-06-27T12:46:15.631Z,1.87
2019-06-27T12:48:44.035Z,2.10
2019-06-27T12:51:12.437Z,2.40
2019-06-27T12:53:40.871Z,2.22
2019-06-27T12:56:09.347Z,2.37
2019-06-27T12:58:37.758Z,2.12
2019-06-27T13:01:06.192Z,2.30
2019-06-27T13:03:34.619Z,2.47
2019-06-27T13:06:03.020Z,2.02
2019-06-27T13:08:31.735Z,2.50
2019-06-27T13:11:00.939Z,2.15
2019-06-27T13:13:34.561Z,2.33
2019-06-27T13:16:06.722Z,2.20
2019-06-27T13:18:36.095Z,2.40
2019-06-27T13:21:04.538Z,2.30
2019-06-27T13:23:32.998Z,2.22
2019-06-27T13:26:01.427Z,2.17
2019-06-27T13:28:29.899Z,2.22
2019-06-27T13:30:58.320Z,2.10
2019-06-27T13:33:26.722Z,2.27
2019-06-27T13:35:55.128Z,2.00
2019-06-27T13:38:23.875Z,2.45
2019-06-27T13:40:52.278Z,2.00
2019-06-27T13:43:20.687Z,2.17
2019-06-27T13:45:49.168Z,2.10
2019-06-27T13:48:17.610Z,2.35
2019-06-27T13:50:46.019Z,2.65
2019-06-27T13:53:14.490Z,2.05
2019-06-27T13:55:42.905Z,2.25
2019-06-27T13:58:11.311Z,1.95
2019-06-27T14:00:44.772Z,2.02
2019-06-27T14:03:13.178Z,1.87
2019-06-27T14:05:41.810Z,2.10
2019-06-27T14:08:10.492Z,1.85
2019-06-27T14:10:38.915Z,2.15
2019-06-27T14:13:07.314Z,2.00
2019-06-27T14:15:35.796Z,1.77
2019-06-27T14:18:04.262Z,1.90
2019-06-27T14:20:32.670Z,2.20
2019-06-27T14:23:01.087Z,2.50
2019-06-27T14:25:29.489Z,2.08
2019-06-27T14:27:57.933Z,2.37
2019-06-27T14:30:27.046Z,2.37
2019-06-27T14:32:55.446Z,1.90
2019-06-27T14:35:23.855Z,2.27
2019-06-27T14:37:52.427Z,2.02
2019-06-27T14:40:21.268Z,2.10
2019-06-27T14:42:49.858Z,2.37
2019-06-27T14:45:18.527Z,2.25
2019-06-27T14:47:46.960Z,2.33
2019-06-27T14:50:15.447Z,1.82
2019-06-27T14:52:43.906Z,2.10
2019-06-27T14:55:12.613Z,1.95
2019-06-27T14:57:41.113Z,1.98
2019-06-27T15:00:10.615Z,2.00
2019-06-27T15:02:39.087Z,2.30
2019-06-27T15:05:08.762Z,1.98
2019-06-27T15:07:37.247Z,2.02
2019-06-27T15:10:06.812Z,2.87
2019-06-27T15:12:35.944Z,2.30
2019-06-27T15:15:05.151Z,2.20
2019-06-27T15:17:33.555Z,2.47
2019-06-27T15:20:02.342Z,2.22
2019-06-27T15:22:30.811Z,2.62
2019-06-27T15:24:59.222Z,2.30
2019-06-27T15:27:27.623Z,2.55
2019-06-27T15:29:56.043Z,2.30
2019-06-27T15:32:24.447Z,2.30
2019-06-27T15:34:52.867Z,2.42
2019-06-27T15:37:21.280Z,2.77
2019-06-27T15:39:49.683Z,2.70
2019-06-27T15:42:18.099Z,2.50
2019-06-27T15:44:46.511Z,2.55
2019-06-27T15:47:14.989Z,3.02
2019-06-27T15:49:43.387Z,2.35
2019-06-27T15:52:11.811Z,2.40
2019-06-27T15:54:40.232Z,2.47
2019-06-27T15:57:08.627Z,2.37
2019-06-27T15:59:37.070Z,2.65
2019-06-27T16:02:05.517Z,2.40
2019-06-27T16:04:34.585Z,2.80
2019-06-27T16:07:03.398Z,2.70
2019-06-27T16:09:31.782Z,2.50
2019-06-27T16:12:00.221Z,2.40
2019-06-27T16:14:28.943Z,2.60
2019-06-27T16:16:57.347Z,2.65
2019-06-27T16:19:25.759Z,3.30
2019-06-27T16:21:54.295Z,2.83
2019-06-27T16:24:22.709Z,3.20
2019-06-27T16:26:51.124Z,3.00
2019-06-27T16:29:19.536Z,2.60
2019-06-27T16:31:47.993Z,2.83
2019-06-27T16:34:16.423Z,2.65
2019-06-27T16:36:44.823Z,3.12
2019-06-27T16:39:13.227Z,2.70
2019-06-27T16:41:41.659Z,2.80
2019-06-27T16:44:10.051Z,3.33
2019-06-27T16:46:38.527Z,2.83
2019-06-27T16:49:06.947Z,2.85
2019-06-27T16:51:35.346Z,3.15
2019-06-27T16:54:03.747Z,2.72
2019-06-27T16:56:32.167Z,2.70
2019-06-27T16:59:00.574Z,2.87
2019-06-27T17:01:28.979Z,3.00
2019-06-27T17:03:57.399Z,2.70
2019-06-27T17:06:40.826Z,2.80
2019-06-27T17:08:55.936Z,2.92
2019-06-27T17:11:24.367Z,3.30
2019-06-27T17:13:52.770Z,3.12
2019-06-27T17:16:22.307Z,3.10
2019-06-27T17:18:50.844Z,3.50
2019-06-27T17:21:19.247Z,3.50
2019-06-27T17:23:47.647Z,3.12
2019-06-27T17:26:16.075Z,2.98
2019-06-27T17:28:44.470Z,2.80
2019-06-27T17:31:12.951Z,2.90
2019-06-27T17:33:41.383Z,2.75
2019-06-27T17:36:09.430Z,2.80
2019-06-27T17:38:37.898Z,2.50
2019-06-27T17:41:06.441Z,2.70
2019-06-27T17:43:34.839Z,2.60
2019-06-27T17:46:04.021Z,2.30
2019-06-27T17:48:32.450Z,2.23
2019-06-27T17:51:00.855Z,2.50
2019-06-27T17:53:28.918Z,2.25
2019-06-27T17:55:57.375Z,2.30
2019-06-27T17:58:25.757Z,2.30
2019-06-27T18:00:54.179Z,2.00
2019-06-27T18:03:22.595Z,2.43
2019-06-27T18:05:50.996Z,1.93
2019-06-27T18:08:19.416Z,2.30
2019-06-27T18:10:47.927Z,2.43
2019-06-27T18:13:16.326Z,2.50
2019-06-27T18:15:44.727Z,2.50
2019-06-27T18:18:13.467Z,2.43
2019-06-27T18:20:41.870Z,2.30
2019-06-27T18:23:10.343Z,2.33
2019-06-27T18:25:39.115Z,2.20
2019-06-27T18:28:08.011Z,2.27
2019-06-27T18:30:36.410Z,2.53
2019-06-27T18:33:05.199Z,2.27
2019-06-27T18:35:33.975Z,2.50
2019-06-27T18:38:02.378Z,2.17
2019-06-27T18:40:31.167Z,2.60
2019-06-27T18:42:59.560Z,2.23
2019-06-27T18:45:27.976Z,2.20
2019-06-27T18:47:56.445Z,2.30
2019-06-27T18:50:24.924Z,2.17
2019-06-27T18:52:53.322Z,2.10
2019-06-27T18:55:21.803Z,2.33
2019-06-27T18:57:50.263Z,2.63
2019-06-27T19:00:18.728Z,2.30
2019-06-27T19:02:47.918Z,2.30
2019-06-27T19:05:16.735Z,2.57
2019-06-27T19:07:46.328Z,2.33
2019-06-27T19:10:15.060Z,2.23
2019-06-27T19:12:43.539Z,2.53
2019-06-27T19:15:12.278Z,2.37
2019-06-27T19:17:40.709Z,2.33
2019-06-27T19:20:26.071Z,2.47
2019-06-27T19:23:11.509Z,2.10
2019-06-27T19:25:41.640Z,2.07
2019-06-27T19:28:12.970Z,2.10
2019-06-27T19:30:45.689Z,2.23
2019-06-27T19:33:18.565Z,2.40
2019-06-27T19:35:48.541Z,2.20
2019-06-27T19:38:17.832Z,2.20
2019-06-27T19:41:03.394Z,1.90
2019-06-27T19:43:31.828Z,2.03
2019-06-27T19:46:04.127Z,2.00
2019-06-27T19:48:37.361Z,1.67
2019-06-27T19:51:10.971Z,1.90
2019-06-27T19:53:42.824Z,1.83
2019-06-27T19:56:18.438Z,1.90
2019-06-27T19:58:48.293Z,1.93
2019-06-27T20:01:19.858Z,1.90
2019-06-27T20:03:52.348Z,2.17
2019-06-27T20:06:25.008Z,1.80
2019-06-27T20:08:53.457Z,1.67
2019-06-27T20:11:22.080Z,1.70
2019-06-27T20:13:50.490Z,1.70
2019-06-27T20:16:18.882Z,2.13
2019-06-27T20:18:47.303Z,2.10
2019-06-27T20:21:15.707Z,1.87
2019-06-27T20:23:44.401Z,2.07
2019-06-27T20:26:12.791Z,1.97
2019-06-27T20:28:41.270Z,1.97
2019-06-27T20:31:09.670Z,1.90
2019-06-27T20:33:38.075Z,2.00
2019-06-27T20:36:06.474Z,2.10
2019-06-27T20:38:35.558Z,2.00
2019-06-27T20:41:04.058Z,1.90
2019-06-27T20:43:32.463Z,1.90
2019-06-27T20:46:00.874Z,2.17
2019-06-27T20:48:29.271Z,1.80
2019-06-27T20:50:57.691Z,2.10
2019-06-27T20:53:26.431Z,1.70
2019-06-27T20:55:54.838Z,2.00
2019-06-27T20:58:23.251Z,1.80
2019-06-27T21:00:51.650Z,2.23
2019-06-27T21:03:20.054Z,2.20
2019-06-27T21:05:48.131Z,3.17
2019-06-27T21:08:16.538Z,2.70
2019-06-27T21:10:44.942Z,3.00
2019-06-27T21:13:13.429Z,2.43
2019-06-27T21:15:41.823Z,2.70
2019-06-27T21:18:10.223Z,2.70
2019-06-27T21:20:38.635Z,3.10
2019-06-27T21:23:07.042Z,3.40
2019-06-27T21:25:35.439Z,3.50
2019-06-27T21:28:03.860Z,3.60
2019-06-27T21:30:32.265Z,3.63
2019-06-27T21:33:00.655Z,3.47
2019-06-27T21:35:29.099Z,3.40
2019-06-27T21:37:57.517Z,3.87
2019-06-27T21:40:25.911Z,3.90
2019-06-27T21:42:54.326Z,3.80
2019-06-27T21:45:22.799Z,4.00
2019-06-27T21:47:51.203Z,3.97
2019-06-27T21:50:20.379Z,4.47
2019-06-27T21:52:48.778Z,4.47
2019-06-27T21:55:17.181Z,4.10
2019-06-27T21:57:45.594Z,4.00
2019-06-27T22:00:14.848Z,4.50
2019-06-27T22:02:43.823Z,4.53
2019-06-27T22:05:13.707Z,4.70
2019-06-27T22:07:42.091Z,4.03
2019-06-27T22:10:11.034Z,5.20
2019-06-27T22:12:39.535Z,4.63
2019-06-27T22:15:09.279Z,4.53
2019-06-27T22:17:37.728Z,5.20
2019-06-27T22:20:15.079Z,4.63
2019-06-27T22:22:37.302Z,4.47
2019-06-27T22:25:06.947Z,4.77
2019-06-27T22:27:35.391Z,4.70
2019-06-27T22:30:05.607Z,4.60
2019-06-27T22:32:34.099Z,4.20
2019-06-27T22:35:02.496Z,4.77
2019-06-27T22:37:30.619Z,4.40
2019-06-27T22:40:16.931Z,4.43
2019-06-27T22:43:04.427Z,4.50
2019-06-27T22:45:50.783Z,4.40
2019-06-27T22:48:20.360Z,4.57
2019-06-27T22:50:51.138Z,4.70
2019-06-27T22:53:37.414Z,4.43
2019-06-27T22:56:05.946Z,4.30
2019-06-27T22:58:34.415Z,4.10
2019-06-27T23:01:04.529Z,4.40
2019-06-27T23:03:32.932Z,4.23
2019-06-27T23:06:01.492Z,4.97
2019-06-27T23:08:30.123Z,4.30
2019-06-27T23:10:58.597Z,4.80
2019-06-27T23:13:27.031Z,4.60
2019-06-27T23:15:55.509Z,4.70
2019-06-27T23:18:23.979Z,4.50
2019-06-27T23:20:52.398Z,4.57
2019-06-27T23:23:20.791Z,3.90
2019-06-27T23:25:48.852Z,4.30
2019-06-27T23:28:17.246Z,4.40
2019-06-27T23:30:45.655Z,4.70
2019-06-27T23:33:14.059Z,4.50
2019-06-27T23:36:01.819Z,5.30
2019-06-27T23:38:30.237Z,4.60
2019-06-27T23:40:58.623Z,4.57
2019-06-27T23:43:27.059Z,4.67
2019-06-27T23:45:55.485Z,4.63
2019-06-27T23:48:23.864Z,4.53
2019-06-27T23:50:52.272Z,4.30
2019-06-27T23:53:20.672Z,4.70
2019-06-27T23:55:49.146Z,4.37
2019-06-27T23:58:17.554Z,4.43
